Time;durP1;ratioP1;P1;durP2;ratioP2;P2;SDS_P1;SDS_P2;PMS_P1;PMS_P2;Temp;Humidity;BMP_temperature;BMP_pressure;BME280_temperature;BME280_humidity;BME280_pressure;Samples;Min_cycle;Max_cycle;Signal;HPM_P1;HPM_P2
2023/03/19 00:02:08;;;;;;;;;3.00;3.00;;;;;14.97;66.45;100808.44;6249054;22;52076;-69
2023/03/19 00:04:34;;;;;;;;;3.75;3.75;;;;;14.90;66.70;100802.50;6250004;22;48312;-69
2023/03/19 00:07:00;;;;;;;;;3.25;2.00;;;;;14.87;66.75;100797.28;6277695;22;45239;-69
2023/03/19 00:09:26;;;;;;;;;3.00;3.00;;;;;14.96;66.61;100806.69;6274912;22;45319;-69
2023/03/19 00:11:51;;;;;;;;;2.00;2.00;;;;;14.88;67.15;100806.19;6277523;22;45284;-69
2023/03/19 00:14:17;;;;;;;;;2.75;2.50;;;;;14.87;67.12;100809.81;6277685;22;45231;-69
2023/03/19 00:16:42;;;;;;;;;2.25;2.25;;;;;14.90;66.79;100817.75;6249667;22;45419;-69
2023/03/19 00:19:08;;;;;;;;;5.00;3.00;;;;;14.87;66.80;100823.25;6277727;22;45454;-69
2023/03/19 00:21:34;;;;;;;;;2.50;2.50;;;;;14.88;66.97;100812.44;6277401;22;45518;-69
2023/03/19 00:24:02;;;;;;;;;7.50;6.00;;;;;14.87;66.70;100812.50;6249540;22;46385;-69
2023/03/19 00:26:29;;;;;;;;;5.00;4.00;;;;;14.94;66.77;100828.28;6276786;22;45234;-69
2023/03/19 00:28:55;;;;;;;;;2.75;2.75;;;;;14.92;66.71;100824.78;6277253;22;45547;-69
2023/03/19 00:31:21;;;;;;;;;3.25;2.00;;;;;14.87;67.12;100824.16;6277389;22;45350;-69
2023/03/19 00:33:47;;;;;;;;;3.00;3.00;;;;;14.75;66.89;100809.50;6277546;22;46123;-69
2023/03/19 00:36:12;;;;;;;;;3.00;3.00;;;;;14.90;67.00;100836.56;6277485;22;45430;-69
2023/03/19 00:38:38;;;;;;;;;1.25;1.25;;;;;14.81;66.73;100824.44;6276995;22;45551;-69
2023/03/19 00:41:06;;;;;;;;;2.00;2.00;;;;;14.75;67.08;100816.66;6277783;22;45244;-69
2023/03/19 00:43:31;;;;;;;;;2.50;2.50;;;;;14.84;66.78;100842.25;6277402;22;46079;-69
2023/03/19 00:45:57;;;;;;;;;4.50;2.75;;;;;14.78;66.87;100832.66;6277274;22;45387;-69
2023/03/19 00:48:23;;;;;;;;;2.75;1.50;;;;;14.71;66.80;100828.53;6277723;22;45252;-69
2023/03/19 00:50:48;;;;;;;;;2.00;2.00;;;;;14.82;67.05;100845.00;6277796;22;45285;-69
2023/03/19 00:53:14;;;;;;;;;2.00;2.00;;;;;14.79;66.96;100837.09;6277508;22;46036;-69
2023/03/19 00:55:39;;;;;;;;;5.25;3.75;;;;;14.82;66.92;100842.31;6277605;22;45241;-69
2023/03/19 00:58:05;;;;;;;;;3.50;2.00;;;;;14.74;66.75;100826.56;6277225;22;45252;-69
2023/03/19 01:00:32;;;;;;;;;4.50;4.50;;;;;14.78;66.92;100840.72;6277271;22;45237;-69
2023/03/19 01:02:57;;;;;;;;;1.75;1.75;;;;;14.77;67.18;100842.53;6277534;22;45240;-69
2023/03/19 01:05:22;;;;;;;;;1.00;1.00;;;;;14.73;66.98;100851.66;6277545;22;45371;-69
2023/03/19 01:07:48;;;;;;;;;3.75;3.50;;;;;14.72;67.02;100855.31;6277654;22;45452;-69
2023/03/19 01:10:13;;;;;;;;;2.25;2.00;;;;;14.73;67.50;100846.28;6275740;22;55488;-69
2023/03/19 01:12:38;;;;;;;;;2.00;2.00;;;;;14.71;67.14;100847.34;6276772;22;46044;-69
2023/03/19 01:15:06;;;;;;;;;2.25;2.25;;;;;14.74;67.04;100848.06;6277412;22;50981;-69
2023/03/19 01:17:31;;;;;;;;;3.00;3.00;;;;;14.73;66.95;100856.19;6276581;22;45201;-69
2023/03/19 01:19:57;;;;;;;;;2.25;2.25;;;;;14.74;66.85;100858.81;6277458;22;45465;-69
2023/03/19 01:22:22;;;;;;;;;2.25;2.00;;;;;14.76;67.03;100864.97;6277602;22;45325;-69
2023/03/19 01:24:47;;;;;;;;;2.50;2.50;;;;;14.76;66.55;100864.97;6277026;22;45204;-69
2023/03/19 01:27:13;;;;;;;;;5.00;3.00;;;;;14.72;66.99;100857.16;6277451;22;45436;-69
2023/03/19 01:29:38;;;;;;;;;4.00;2.00;;;;;14.69;66.72;100850.09;6277102;22;45274;-69
2023/03/19 01:32:04;;;;;;;;;2.25;2.00;;;;;14.67;66.96;100852.00;6275226;22;45324;-69
2023/03/19 01:34:30;;;;;;;;;4.00;3.00;;;;;14.68;67.07;100863.59;6277164;22;45499;-69
2023/03/19 01:36:55;;;;;;;;;3.25;3.00;;;;;14.66;66.90;100855.59;6276497;22;45509;-69
2023/03/19 01:39:20;;;;;;;;;3.00;3.00;;;;;14.70;66.89;100869.75;6277102;22;47985;-69
2023/03/19 01:41:46;;;;;;;;;2.00;2.00;;;;;14.67;66.46;100861.84;6274834;22;52386;-69
2023/03/19 01:44:35;;;;;;;;;2.50;2.50;;;;;14.68;66.96;100860.91;6275440;22;45204;-69
2023/03/19 01:47:06;;;;;;;;;4.50;4.50;;;;;14.48;66.72;100827.75;6276302;22;45323;-69
2023/03/19 01:49:33;;;;;;;;;3.00;3.00;;;;;14.55;66.95;100842.66;6249087;22;45458;-69
2023/03/19 01:52:00;;;;;;;;;4.25;3.00;;;;;14.64;67.08;100852.13;6277144;22;45370;-69
2023/03/19 01:54:28;;;;;;;;;2.50;2.50;;;;;14.66;67.13;100865.50;6276570;22;45369;-69
2023/03/19 01:56:59;;;;;;;;;2.75;2.00;;;;;14.59;66.83;100859.53;6276215;22;45568;-69
2023/03/19 01:59:31;;;;;;;;;2.00;2.00;;;;;14.64;66.62;100865.56;6277454;22;45351;-69
2023/03/19 02:02:05;;;;;;;;;4.00;2.75;;;;;14.63;66.81;100861.13;6277152;22;45256;-69
2023/03/19 02:04:32;;;;;;;;;3.00;3.00;;;;;14.63;67.01;100864.69;6277007;22;45551;-69
2023/03/19 02:07:01;;;;;;;;;3.75;3.00;;;;;14.56;67.07;100856.97;6249323;22;45317;-69
2023/03/19 02:09:28;;;;;;;;;2.75;2.75;;;;;14.61;67.01;100857.63;6276623;22;45314;-69
2023/03/19 02:11:54;;;;;;;;;3.00;3.00;;;;;14.56;66.73;100851.59;6277012;22;46598;-69
2023/03/19 02:14:19;;;;;;;;;3.00;2.00;;;;;14.56;67.11;100851.59;6278484;22;45582;-69
2023/03/19 02:16:44;;;;;;;;;2.50;2.50;;;;;14.60;66.97;100843.34;6278329;22;45286;-69
2023/03/19 02:19:16;;;;;;;;;3.50;2.75;;;;;14.61;66.87;100844.22;6277664;22;45538;-69
2023/03/19 02:21:41;;;;;;;;;3.50;3.00;;;;;14.53;66.97;100836.47;6278437;22;46284;-69
2023/03/19 02:24:20;;;;;;;;;6.00;2.75;;;;;14.58;67.11;100834.47;6276168;22;45395;-69
2023/03/19 02:26:46;;;;;;;;;2.75;2.75;;;;;14.46;66.87;100822.47;6277501;22;45336;-69
2023/03/19 02:29:12;;;;;;;;;3.75;2.75;;;;;14.41;66.91;100827.19;6278047;22;45392;-69
2023/03/19 02:31:38;;;;;;;;;4.00;4.00;;;;;14.46;67.37;100838.56;6249974;22;48344;-69
2023/03/19 02:34:23;;;;;;;;;4.50;4.50;;;;;14.45;66.89;100852.09;6277996;22;45301;-69
2023/03/19 02:37:02;;;;;;;;;4.00;3.00;;;;;14.39;67.03;100850.56;6277708;22;45413;-69
2023/03/19 02:39:34;;;;;;;;;3.00;3.00;;;;;14.35;66.99;100857.03;6277842;22;45478;-69
2023/03/19 02:42:01;;;;;;;;;5.25;5.00;;;;;14.32;67.12;100859.84;6276806;22;46992;-69
2023/03/19 02:44:26;;;;;;;;;4.25;4.25;;;;;14.32;67.19;100867.91;6278539;22;45256;-68
2023/03/19 02:46:51;;;;;;;;;3.75;3.75;;;;;14.25;67.02;100864.63;6275379;22;45363;-69
2023/03/19 02:49:17;;;;;;;;;3.00;3.00;;;;;14.26;67.19;100860.13;6278404;22;45323;-69
2023/03/19 02:51:43;;;;;;;;;4.75;4.75;;;;;14.20;67.26;100855.91;6250528;22;47004;-69
2023/03/19 02:54:08;;;;;;;;;5.00;3.00;;;;;14.09;67.08;100837.59;6278197;22;45242;-69
2023/03/19 02:56:34;;;;;;;;;5.00;4.00;;;;;14.11;67.53;100852.78;6276784;22;45557;-69
2023/03/19 02:59:00;;;;;;;;;2.00;2.00;;;;;14.14;67.40;100860.69;6276198;22;45497;-69
2023/03/19 03:01:25;;;;;;;;;6.25;5.00;;;;;14.07;67.34;100852.06;6277449;22;46003;-69
2023/03/19 03:03:50;;;;;;;;;4.00;4.00;;;;;14.11;67.25;100860.81;6277804;22;54373;-68
2023/03/19 03:06:16;;;;;;;;;3.00;3.00;;;;;14.05;67.61;100856.63;6277980;22;45404;-69
2023/03/19 03:08:42;;;;;;;;;4.00;4.00;;;;;14.13;67.56;100865.16;6278183;22;45498;-69
2023/03/19 03:11:08;;;;;;;;;4.00;4.00;;;;;14.12;67.33;100863.44;6277872;22;45364;-69
2023/03/19 03:13:33;;;;;;;;;5.50;5.00;;;;;14.12;67.31;100874.19;6278030;22;45259;-69
2023/03/19 03:15:59;;;;;;;;;4.00;4.00;;;;;14.12;67.52;100876.88;6277951;22;45323;-69
2023/03/19 03:18:24;;;;;;;;;4.50;4.00;;;;;14.02;67.57;100862.13;6277920;22;45295;-69
2023/03/19 03:20:50;;;;;;;;;4.75;4.00;;;;;14.11;67.43;100875.13;6278064;22;45968;-68
2023/03/19 03:23:15;;;;;;;;;4.00;3.75;;;;;14.11;67.52;100869.75;6277390;22;45366;-69
2023/03/19 03:25:41;;;;;;;;;3.00;3.00;;;;;14.14;67.57;100868.75;6276997;22;45316;-69
2023/03/19 03:28:06;;;;;;;;;4.00;4.00;;;;;14.06;67.62;100853.84;6277582;22;45317;-68
2023/03/19 03:30:32;;;;;;;;;3.75;3.75;;;;;14.03;67.46;100851.31;6277407;22;45936;-69
2023/03/19 03:32:57;;;;;;;;;4.00;4.00;;;;;14.14;67.71;100868.75;6278051;22;45404;-69
2023/03/19 03:35:22;;;;;;;;;4.00;3.50;;;;;14.12;67.70;100862.59;6278274;22;45415;-69
2023/03/19 03:37:49;;;;;;;;;5.25;3.25;;;;;14.09;67.39;100863.56;6250296;22;45235;-69
2023/03/19 03:40:16;;;;;;;;;5.25;5.25;;;;;14.18;67.39;100881.97;6277744;22;46141;-69
2023/03/19 03:42:42;;;;;;;;;4.75;4.50;;;;;14.17;67.59;100885.59;6278049;22;45373;-69
2023/03/19 03:45:09;;;;;;;;;4.00;4.00;;;;;14.08;67.66;100875.25;6277573;22;45260;-69
2023/03/19 03:47:36;;;;;;;;;4.00;4.00;;;;;14.03;67.54;100864.75;6277813;22;45387;-69
2023/03/19 03:50:03;;;;;;;;;4.75;4.75;;;;;14.12;67.51;100890.28;6277847;22;45433;-69
2023/03/19 03:52:30;;;;;;;;;5.00;4.00;;;;;14.05;67.81;100878.97;6277962;22;45181;-69
2023/03/19 03:54:57;;;;;;;;;3.75;3.25;;;;;14.10;67.72;100889.50;6277321;22;45221;-69
2023/03/19 03:57:23;;;;;;;;;2.75;2.75;;;;;14.06;67.46;100886.03;6277767;22;45350;-69
2023/03/19 03:59:48;;;;;;;;;3.75;3.75;;;;;13.99;67.69;100881.91;6277428;22;45446;-69
2023/03/19 04:02:14;;;;;;;;;6.00;4.25;;;;;14.01;67.88;100898.81;6277515;22;54280;-69
2023/03/19 04:04:40;;;;;;;;;3.00;3.00;;;;;13.94;68.04;100896.47;6277951;22;45315;-69
2023/03/19 04:07:06;;;;;;;;;4.50;4.50;;;;;13.93;68.22;100900.94;6248939;22;45514;-69
2023/03/19 04:09:31;;;;;;;;;4.00;4.00;;;;;13.97;68.42;100899.03;6277386;22;46512;-69
2023/03/19 04:11:57;;;;;;;;;4.25;4.00;;;;;13.95;68.27;100895.50;6277341;22;45558;-69
2023/03/19 04:14:22;;;;;;;;;3.25;2.75;;;;;13.91;68.62;100886.72;6278208;22;45359;-69
2023/03/19 04:16:47;;;;;;;;;4.00;3.25;;;;;13.97;68.58;100899.88;6277348;22;45306;-69
2023/03/19 04:19:13;;;;;;;;;6.00;5.25;;;;;13.92;68.32;100888.50;6277411;22;45901;-69
2023/03/19 04:21:38;;;;;;;;;3.75;3.75;;;;;13.87;68.70;100890.50;6249819;22;45309;-69
2023/03/19 04:24:04;;;;;;;;;4.25;4.00;;;;;13.96;68.44;100898.13;6277672;22;45335;-69
2023/03/19 04:26:29;;;;;;;;;6.50;5.00;;;;;13.94;68.63;100893.78;6248291;22;45278;-69
2023/03/19 04:28:57;;;;;;;;;6.50;5.00;;;;;13.84;69.08;100887.94;6249425;22;47214;-69
2023/03/19 04:31:22;;;;;;;;;6.00;6.00;;;;;13.75;69.71;100891.03;6276927;22;45479;-69
2023/03/19 04:33:48;;;;;;;;;4.25;4.00;;;;;13.79;69.89;100898.88;6277024;22;45273;-69
2023/03/19 04:36:13;;;;;;;;;4.00;4.00;;;;;13.73;69.97;100888.41;6275868;22;45346;-69
2023/03/19 04:38:39;;;;;;;;;6.75;5.50;;;;;13.70;70.16;100889.41;6277417;22;46267;-69
2023/03/19 04:41:04;;;;;;;;;6.00;5.50;;;;;13.74;70.27;100891.97;6277741;22;45347;-69
2023/03/19 04:43:29;;;;;;;;;6.50;5.50;;;;;13.69;70.24;100893.03;6276946;22;45323;-69
2023/03/19 04:45:55;;;;;;;;;7.00;5.75;;;;;13.69;70.45;100892.16;6277755;22;45720;-69
2023/03/19 04:48:20;;;;;;;;;3.25;3.25;;;;;13.68;70.50;100896.66;6248486;22;50620;-69
2023/03/19 04:50:46;;;;;;;;;3.00;3.00;;;;;13.65;70.66;100898.63;6277770;22;45320;-69
2023/03/19 04:53:12;;;;;;;;;7.50;6.00;;;;;13.61;70.82;100895.16;6277625;22;45326;-69
2023/03/19 04:55:37;;;;;;;;;7.00;6.00;;;;;13.66;70.98;100903.88;6276975;22;45327;-69
2023/03/19 04:58:03;;;;;;;;;7.00;7.00;;;;;13.56;71.07;100891.81;6276753;22;45157;-69
2023/03/19 05:00:29;;;;;;;;;6.00;5.50;;;;;13.61;71.02;100899.66;6275232;22;45947;-69
2023/03/19 05:02:55;;;;;;;;;5.00;5.00;;;;;13.51;71.04;100892.03;6277892;22;45264;-69
2023/03/19 05:05:20;;;;;;;;;9.25;6.75;;;;;13.54;71.37;100896.38;6277301;22;45510;-69
2023/03/19 05:07:46;;;;;;;;;5.00;3.00;;;;;13.51;71.38;100900.06;6276948;22;45493;-69
2023/03/19 05:10:11;;;;;;;;;6.75;6.00;;;;;13.45;70.91;100888.72;6277268;22;45284;-69
2023/03/19 05:12:37;;;;;;;;;5.75;5.50;;;;;13.62;71.39;100917.53;6277710;22;45292;-69
2023/03/19 05:15:04;;;;;;;;;7.00;6.00;;;;;13.58;71.48;100902.47;6275904;22;45575;-69
2023/03/19 05:17:30;;;;;;;;;6.00;6.00;;;;;13.65;71.47;100914.72;6249458;22;47921;-69
2023/03/19 05:19:55;;;;;;;;;6.00;6.00;;;;;13.65;71.71;100918.25;6277525;22;45506;-69
2023/03/19 05:22:22;;;;;;;;;9.00;5.75;;;;;13.61;71.24;100913.94;6248820;22;45323;-69
2023/03/19 05:24:48;;;;;;;;;9.00;7.00;;;;;13.67;71.48;100924.41;6276489;22;45359;-70
2023/03/19 05:27:13;;;;;;;;;7.25;7.25;;;;;13.70;71.31;100928.81;6276812;22;46223;-70
2023/03/19 05:29:39;;;;;;;;;6.00;6.00;;;;;13.71;71.75;100926.06;6249825;22;45730;-69
2023/03/19 05:32:05;;;;;;;;;7.25;7.00;;;;;13.71;71.67;100942.16;6275299;22;45370;-69
2023/03/19 05:34:31;;;;;;;;;8.00;8.00;;;;;13.59;71.63;100921.19;6277564;22;45644;-69
2023/03/19 05:36:57;;;;;;;;;10.00;7.50;;;;;13.62;71.95;100923.75;6276864;22;46388;-69
2023/03/19 05:39:22;;;;;;;;;8.75;8.75;;;;;13.68;71.77;100936.00;6277168;22;45229;-69
2023/03/19 05:41:48;;;;;;;;;6.50;6.00;;;;;13.60;71.89;100930.09;6277344;22;45973;-69
2023/03/19 05:44:13;;;;;;;;;9.00;7.00;;;;;13.67;71.73;100939.66;6276862;22;45316;-69
2023/03/19 05:46:38;;;;;;;;;8.00;6.25;;;;;13.59;72.08;100923.88;6248137;22;47319;-70
2023/03/19 05:49:04;;;;;;;;;8.50;8.25;;;;;13.69;71.81;100940.44;6277257;22;45308;-69
2023/03/19 05:51:30;;;;;;;;;10.00;9.00;;;;;13.65;71.77;100939.72;6277618;22;45291;-70
2023/03/19 05:53:56;;;;;;;;;8.75;6.50;;;;;13.69;71.46;100944.00;6277124;22;45276;-69
2023/03/19 05:56:21;;;;;;;;;9.75;9.75;;;;;13.58;71.71;100927.50;6273734;22;45453;-70
2023/03/19 05:58:47;;;;;;;;;9.00;9.00;;;;;13.75;71.93;100960.78;6274549;22;45408;-70
2023/03/19 06:01:12;;;;;;;;;9.00;8.25;;;;;13.77;71.84;100953.56;6249774;22;45366;-70
2023/03/19 06:03:37;;;;;;;;;9.00;7.00;;;;;13.68;72.07;100950.31;6277344;22;45311;-70
2023/03/19 06:06:03;;;;;;;;;11.00;9.00;;;;;13.73;72.02;100957.28;6275649;22;50756;-70
2023/03/19 06:08:28;;;;;;;;;9.25;9.25;;;;;13.71;72.46;100952.00;6276627;22;45248;-70
2023/03/19 06:10:54;;;;;;;;;8.75;8.75;;;;;13.74;72.05;100957.22;6275994;22;45414;-69
2023/03/19 06:13:19;;;;;;;;;11.25;9.00;;;;;13.60;71.65;100944.41;6276439;22;45249;-70
2023/03/19 06:15:48;;;;;;;;;8.75;8.50;;;;;13.66;71.74;100951.31;6249096;22;47209;-69
2023/03/19 06:18:13;;;;;;;;;10.25;9.00;;;;;13.76;71.72;100979.50;6276011;22;45353;-70
2023/03/19 06:20:39;;;;;;;;;11.75;9.25;;;;;13.64;71.59;100958.56;6277298;22;45296;-69
2023/03/19 06:23:04;;;;;;;;;10.00;10.00;;;;;13.76;71.90;100965.22;6275068;22;45453;-70
2023/03/19 06:25:29;;;;;;;;;12.75;11.75;;;;;13.63;72.01;100955.00;6248583;22;47044;-70
2023/03/19 06:27:55;;;;;;;;;10.00;9.00;;;;;13.77;72.16;100977.69;6275203;22;45545;-70
2023/03/19 06:30:20;;;;;;;;;11.75;11.50;;;;;13.66;72.35;100960.22;6276390;22;45692;-70
2023/03/19 06:32:46;;;;;;;;;9.00;8.50;;;;;13.79;72.00;100984.72;6276401;22;45357;-69
2023/03/19 06:35:11;;;;;;;;;10.50;9.50;;;;;13.75;72.48;100982.22;6275160;22;46223;-69
2023/03/19 06:37:37;;;;;;;;;9.50;8.00;;;;;13.76;72.39;100994.72;6276720;22;45378;-70
2023/03/19 06:40:03;;;;;;;;;16.00;12.00;;;;;13.78;72.18;100999.09;6276897;22;45372;-70
2023/03/19 06:42:29;;;;;;;;;10.75;10.25;;;;;13.74;72.35;101002.84;6276648;22;45564;-70
2023/03/19 06:44:54;;;;;;;;;11.75;9.50;;;;;13.70;72.32;101002.09;6276610;22;46190;-70
2023/03/19 06:47:20;;;;;;;;;10.75;10.75;;;;;13.76;72.54;101010.81;6275992;22;45632;-70
2023/03/19 06:49:45;;;;;;;;;11.75;10.75;;;;;13.67;72.70;100990.63;6276664;22;45197;-68
2023/03/19 06:52:10;;;;;;;;;9.75;8.75;;;;;13.72;72.48;101012.75;6276843;22;45230;-69
2023/03/19 06:54:36;;;;;;;;;11.25;10.50;;;;;13.71;72.56;101003.84;6247907;22;47606;-70
2023/03/19 06:57:01;;;;;;;;;11.50;9.50;;;;;13.73;72.74;101014.50;6275465;22;54232;-70
2023/03/19 06:59:26;;;;;;;;;12.00;10.00;;;;;13.68;72.60;101020.06;6278416;22;45287;-70
2023/03/19 07:01:52;;;;;;;;;8.75;8.75;;;;;13.70;72.55;101014.66;6277789;22;45226;-70
2023/03/19 07:04:17;;;;;;;;;12.00;10.75;;;;;13.74;72.84;101016.25;6249848;22;47634;-70
2023/03/19 07:06:43;;;;;;;;;10.50;10.25;;;;;13.73;72.81;101019.84;6277389;22;45591;-70
2023/03/19 07:09:09;;;;;;;;;10.25;9.50;;;;;13.72;73.03;101018.13;6249970;22;45300;-71
2023/03/19 07:11:35;;;;;;;;;10.50;9.25;;;;;13.73;72.94;101011.81;6277640;22;45288;-70
2023/03/19 07:14:00;;;;;;;;;10.75;8.75;;;;;13.74;73.11;101018.94;6277732;22;46144;-70
2023/03/19 07:16:26;;;;;;;;;15.50;11.50;;;;;13.71;72.88;101005.63;6278052;22;45302;-70
2023/03/19 07:18:51;;;;;;;;;7.25;7.00;;;;;13.78;72.84;101014.31;6278246;22;45323;-70
2023/03/19 07:21:16;;;;;;;;;11.75;11.25;;;;;13.79;72.55;101016.06;6249440;22;45425;-70
2023/03/19 07:23:41;;;;;;;;;11.00;9.50;;;;;13.73;73.02;101009.13;6277240;22;53452;-70
2023/03/19 07:26:07;;;;;;;;;10.25;9.00;;;;;13.80;73.03;101024.06;6277457;22;45759;-70
2023/03/19 07:28:32;;;;;;;;;13.25;9.75;;;;;13.75;72.80;101011.75;6250386;22;45335;-70
2023/03/19 07:30:57;;;;;;;;;11.25;11.00;;;;;13.83;72.97;101029.31;6277172;22;45286;-70
2023/03/19 07:33:23;;;;;;;;;14.75;12.25;;;;;13.83;73.26;101028.41;6277496;22;48893;-69
2023/03/19 07:35:48;;;;;;;;;11.25;10.50;;;;;13.84;73.33;101022.97;6277004;22;45332;-70
2023/03/19 07:38:14;;;;;;;;;9.75;8.75;;;;;13.75;73.21;101009.06;6249741;22;45201;-70
2023/03/19 07:40:40;;;;;;;;;10.75;9.00;;;;;13.86;72.97;101030.97;6277199;22;45415;-68
2023/03/19 07:43:05;;;;;;;;;11.25;8.25;;;;;13.85;72.86;101031.91;6276041;22;45973;-69
2023/03/19 07:45:31;;;;;;;;;9.00;8.25;;;;;13.87;72.97;101030.03;6277778;22;45232;-69
2023/03/19 07:47:56;;;;;;;;;10.25;8.50;;;;;13.88;72.58;101021.03;6248961;22;45393;-69
2023/03/19 07:50:21;;;;;;;;;7.75;7.75;;;;;13.82;72.35;101013.25;6275983;22;45550;-69
2023/03/19 07:52:50;;;;;;;;;9.25;9.00;;;;;13.88;72.32;101027.28;6275645;22;46828;-70
2023/03/19 07:55:15;;;;;;;;;8.50;8.50;;;;;13.88;72.06;101032.66;6276948;22;45625;-69
2023/03/19 07:57:40;;;;;;;;;7.75;7.75;;;;;13.81;72.42;101016.88;6277622;22;45384;-69
2023/03/19 08:00:07;;;;;;;;;6.00;6.00;;;;;13.92;72.30;101038.78;6277432;22;47649;-68
2023/03/19 08:02:32;;;;;;;;;6.00;6.00;;;;;13.81;72.13;101024.91;6276985;22;46984;-68
2023/03/19 08:05:00;;;;;;;;;7.00;6.25;;;;;13.84;72.01;101024.78;6277763;22;45321;-69
2023/03/19 08:07:26;;;;;;;;;8.50;8.50;;;;;13.90;72.05;101043.34;6277339;22;45381;-68
2023/03/19 08:09:51;;;;;;;;;7.00;6.50;;;;;13.92;71.69;101041.44;6248797;22;45291;-69
2023/03/19 08:12:17;;;;;;;;;9.00;8.00;;;;;13.87;72.12;101030.91;6277752;22;45316;-69
2023/03/19 08:14:42;;;;;;;;;7.50;7.25;;;;;13.87;71.89;101025.53;6278087;22;45197;-69
2023/03/19 08:17:07;;;;;;;;;5.75;5.00;;;;;13.86;72.36;101028.28;6277887;22;45296;-69
2023/03/19 08:19:33;;;;;;;;;7.50;6.00;;;;;13.85;72.26;101027.41;6277459;22;45652;-68
2023/03/19 08:21:58;;;;;;;;;8.50;6.00;;;;;13.71;72.21;100997.59;6248894;22;47357;-69
2023/03/19 08:24:23;;;;;;;;;8.25;7.00;;;;;13.97;71.40;101036.75;6276442;22;45405;-69
2023/03/19 08:26:49;;;;;;;;;8.00;8.00;;;;;13.94;71.73;101034.22;6277227;22;45217;-69
2023/03/19 08:29:15;;;;;;;;;6.50;6.50;;;;;13.91;71.67;101031.66;6277826;22;45591;-70
2023/03/19 08:31:40;;;;;;;;;6.00;6.00;;;;;14.02;71.72;101044.63;6276329;22;46040;-70
2023/03/19 08:34:09;;;;;;;;;7.00;6.00;;;;;13.98;71.13;101041.22;6276387;22;45379;-70
2023/03/19 08:36:34;;;;;;;;;6.50;5.25;;;;;13.95;71.05;101037.75;6277008;22;45269;-70
2023/03/19 08:39:00;;;;;;;;;5.25;5.25;;;;;13.92;70.91;101029.84;6249934;22;45338;-69
2023/03/19 08:41:25;;;;;;;;;10.50;6.00;;;;;13.95;70.62;101040.44;6277075;22;46696;-69
2023/03/19 08:43:50;;;;;;;;;5.00;4.50;;;;;13.97;70.74;101050.19;6249774;22;45224;-69
2023/03/19 08:46:16;;;;;;;;;5.75;5.00;;;;;13.92;70.62;101049.50;6277125;22;46208;-69
2023/03/19 08:48:42;;;;;;;;;3.75;3.75;;;;;14.05;70.02;101077.59;6277546;22;45395;-69
2023/03/19 08:51:08;;;;;;;;;6.25;5.50;;;;;14.04;70.74;101075.81;6277426;22;45255;-69
2023/03/19 08:53:34;;;;;;;;;6.00;5.00;;;;;13.98;70.27;101070.72;6276818;22;45575;-69
2023/03/19 08:56:03;;;;;;;;;5.25;4.25;;;;;14.05;70.29;101085.63;6275721;22;45337;-70
2023/03/19 08:58:29;;;;;;;;;4.00;4.00;;;;;14.06;70.03;101092.72;6249736;22;45399;-69
2023/03/19 09:01:02;;;;;;;;;6.25;5.00;;;;;14.01;70.39;101104.59;6277214;22;45431;-69
2023/03/19 09:03:27;;;;;;;;;4.00;4.00;;;;;13.97;70.49;101108.38;6277157;22;45608;-69
2023/03/19 09:05:56;;;;;;;;;5.00;5.00;;;;;13.88;69.73;101096.16;6277377;22;45280;-69
2023/03/19 09:08:21;;;;;;;;;4.25;4.00;;;;;13.86;69.77;101115.00;6267910;22;45427;-69
2023/03/19 09:10:47;;;;;;;;;4.00;4.00;;;;;13.83;70.04;101122.31;6275835;22;45904;-69
2023/03/19 09:13:12;;;;;;;;;4.25;4.00;;;;;13.77;69.83;101109.16;6276497;22;45224;-69
2023/03/19 09:15:37;;;;;;;;;4.25;4.25;;;;;13.73;69.31;101119.13;6276675;22;49366;-69
2023/03/19 09:18:04;;;;;;;;;6.00;4.50;;;;;13.80;69.16;101130.47;6276759;22;45342;-69
2023/03/19 09:20:30;;;;;;;;;3.00;3.00;;;;;13.69;69.10;101121.06;6276282;22;46947;-69
2023/03/19 09:22:55;;;;;;;;;3.00;2.00;;;;;13.67;69.22;101130.13;6277506;22;45521;-69
2023/03/19 09:25:20;;;;;;;;;5.00;4.00;;;;;13.56;69.52;101117.09;6277391;22;45316;-69
2023/03/19 09:27:45;;;;;;;;;4.00;4.00;;;;;13.56;69.94;101122.47;6276814;22;45424;-69
2023/03/19 09:30:12;;;;;;;;;3.75;2.25;;;;;13.64;69.67;101147.19;6276837;22;45397;-69
2023/03/19 09:32:37;;;;;;;;;4.00;4.00;;;;;13.60;69.77;101139.31;6248897;22;45297;-69
2023/03/19 09:35:03;;;;;;;;;4.50;4.00;;;;;13.55;69.75;101126.09;6277322;22;45383;-69
2023/03/19 09:37:28;;;;;;;;;3.50;3.00;;;;;13.58;69.64;101133.13;6277381;22;45260;-69
2023/03/19 09:39:54;;;;;;;;;3.25;3.00;;;;;13.62;69.87;101141.00;6276109;22;45258;-70
2023/03/19 09:42:42;;;;;;;;;3.00;3.00;;;;;13.59;69.85;101141.13;6276400;22;45302;-69
2023/03/19 09:45:13;;;;;;;;;2.00;2.00;;;;;13.61;69.56;101143.75;6276261;22;45292;-69
2023/03/19 09:47:40;;;;;;;;;3.00;3.00;;;;;13.63;69.38;101136.50;6276230;22;45195;-67
2023/03/19 09:50:12;;;;;;;;;3.00;3.00;;;;;13.59;69.44;101130.41;6274721;22;47082;-69
2023/03/19 09:53:11;;;;;;;;;6.00;5.00;;;;;13.64;69.41;101146.31;6276618;22;45908;-69
2023/03/19 09:55:43;;;;;;;;;5.75;4.75;;;;;13.33;69.70;101086.69;6239858;22;45331;-70
2023/03/19 09:58:27;;;;;;;;;4.00;4.00;;;;;13.64;69.75;101132.91;6276495;22;45256;-69
2023/03/19 10:00:54;;;;;;;;;5.00;5.00;;;;;13.68;69.12;101139.88;6275629;22;45311;-70
2023/03/19 10:03:28;;;;;;;;;5.75;4.00;;;;;13.79;69.43;101161.81;6276623;22;45272;-67
2023/03/19 10:06:09;;;;;;;;;5.25;5.00;;;;;13.80;69.03;101157.31;6276849;22;45288;-67
2023/03/19 10:08:59;;;;;;;;;5.50;4.00;;;;;13.81;69.14;101164.44;6275347;22;45445;-66
2023/03/19 10:11:49;;;;;;;;;2.75;2.75;;;;;13.80;69.30;101162.69;6274394;22;46054;-66
2023/03/19 10:14:26;;;;;;;;;3.75;3.75;;;;;13.77;69.60;101166.38;6276548;22;45408;-66
2023/03/19 10:16:57;;;;;;;;;3.00;3.00;;;;;13.77;70.27;101168.19;6275562;22;45386;-66
2023/03/19 10:19:35;;;;;;;;;2.75;2.00;;;;;13.78;70.18;101165.47;6249113;22;45263;-66
2023/03/19 10:22:07;;;;;;;;;2.75;2.75;;;;;13.80;70.31;101160.91;6276360;22;46238;-66
2023/03/19 10:24:40;;;;;;;;;2.75;2.75;;;;;13.78;70.61;101162.78;6276194;22;45254;-66
2023/03/19 10:27:15;;;;;;;;;2.00;2.00;;;;;13.77;70.56;101182.47;6276475;22;45231;-66
2023/03/19 10:29:41;;;;;;;;;2.00;1.00;;;;;13.71;69.74;101180.00;6276527;22;45480;-66
2023/03/19 10:32:34;;;;;;;;;2.75;2.50;;;;;13.64;70.19;101184.75;6276263;22;46133;-66
2023/03/19 10:35:07;;;;;;;;;3.00;3.00;;;;;13.62;70.65;101186.63;6277353;22;45551;-66
2023/03/19 10:37:34;;;;;;;;;3.50;3.50;;;;;13.59;71.12;101199.28;6277567;22;45333;-66
2023/03/19 10:40:00;;;;;;;;;2.25;2.00;;;;;13.56;71.41;101191.34;6250895;22;45489;-69
2023/03/19 10:42:54;;;;;;;;;4.00;2.75;;;;;13.51;71.92;101189.72;6249223;22;47188;-67
2023/03/19 10:45:25;;;;;;;;;5.00;4.25;;;;;13.49;72.20;101191.56;6277540;22;45252;-70
2023/03/19 10:47:51;;;;;;;;;4.50;4.50;;;;;13.43;72.29;101190.91;6249539;22;45343;-72
2023/03/19 10:50:24;;;;;;;;;4.50;4.25;;;;;13.52;72.11;101204.84;6278070;22;45321;-68
2023/03/19 10:52:52;;;;;;;;;6.25;5.00;;;;;13.51;71.91;101205.81;6274132;22;46299;-66
2023/03/19 10:55:23;;;;;;;;;6.50;6.00;;;;;13.43;71.79;101194.50;6272913;22;45651;-67
2023/03/19 10:57:54;;;;;;;;;7.75;6.25;;;;;13.40;71.96;101193.69;6272901;22;45557;-66
2023/03/19 11:00:24;;;;;;;;;7.00;6.00;;;;;13.28;72.32;101176.22;6245164;22;45456;-67
2023/03/19 11:02:52;;;;;;;;;7.00;5.75;;;;;13.46;72.46;101201.53;6273604;22;46430;-67
2023/03/19 11:05:24;;;;;;;;;10.25;9.00;;;;;13.48;72.66;101196.97;6271386;22;45426;-66
2023/03/19 11:08:04;;;;;;;;;10.00;9.00;;;;;13.49;72.92;101196.91;6273199;22;45466;-66
2023/03/19 11:10:32;;;;;;;;;7.50;7.50;;;;;13.49;72.30;101191.56;6273010;22;45310;-66
2023/03/19 11:13:25;;;;;;;;;14.25;12.50;;;;;13.44;72.13;101198.03;6273528;22;46025;-66
2023/03/19 11:15:52;;;;;;;;;7.00;6.00;;;;;13.42;71.94;101206.13;6270232;22;45572;-66
2023/03/19 11:18:23;;;;;;;;;4.25;4.25;;;;;13.40;70.74;101224.09;6273003;22;45774;-66
2023/03/19 11:20:58;;;;;;;;;2.00;2.00;;;;;13.25;70.51;101219.25;6273521;22;45710;-70
2023/03/19 11:23:36;;;;;;;;;1.00;1.00;;;;;13.22;69.25;101235.44;6272892;22;46402;-67
2023/03/19 11:26:02;;;;;;;;;1.00;1.00;;;;;13.00;69.51;101214.75;6245349;22;45363;-67